NCAR-RAP Real-Time Weather Data

Output produced by METARs form (23 February 2020  01:41 UTC)
found at http://weather.rap.ucar.edu/surface/
 
KATL 230052Z 23003KT 10SM FEW200 SCT250 09/M03 A3033 RMK AO2 SLP278 T00891028
KATL 222352Z 19004KT 10SM FEW200 SCT250 10/M03 A3033 RMK AO2 SLP278 T01001028 10133 20100 56009
KATL 222252Z 20003KT 10SM FEW200 SCT250 12/M05 A3034 RMK AO2 SLP278 T01171050
KATL 222152Z VRB04KT 10SM FEW150 SCT250 13/M04 A3034 RMK AO2 SLP280 T01281044
KATL 222052Z 00000KT 10SM FEW150 SCT250 13/M04 A3036 RMK AO2 SLP286 T01281039 56029
KATL 221952Z 00000KT 10SM SCT250 13/M03 A3038 RMK AO2 SLP293 T01281028
KATL 221852Z VRB03KT 10SM SCT250 11/M03 A3041 RMK AO2 SLP303 T01111033
KATL 221752Z 00000KT 10SM SCT250 09/M04 A3045 RMK AO2 SLP317 T00941039 10106 21011 58012
KATL 221652Z 26004KT 10SM SCT250 09/M03 A3048 RMK AO2 SLP325 T00891028
KATL 221552Z VRB03KT 10SM SCT250 08/M03 A3049 RMK AO2 SLP330 T00781033
KATL 221452Z 00000KT 10SM FEW250 05/M04 A3049 RMK AO2 SLP330 T00501039 50013
KATL 221352Z 31004KT 10SM CLR 02/M03 A3049 RMK AO2 SLP333 T00221033
KATL 221252Z 32003KT 10SM CLR M01/M04 A3046 RMK AO2 SLP324 T10061044
KATL 221152Z 31003KT 10SM CLR M01/M05 A3045 RMK AO2 SLP318 T10061050 10028 21011 53011
KATL 221052Z 33005KT 10SM CLR M01/M05 A3043 RMK AO2 SLP313 T10061050
KATL 220952Z 32004KT 10SM CLR M01/M04 A3041 RMK AO2 SLP305 T10061044
KATL 220852Z 31003KT 10SM CLR 00/M04 A3041 RMK AO2 SLP305 T00001044 56009
KATL 220752Z 00000KT 10SM CLR 01/M04 A3042 RMK AO2 SLP307 T00061039
KATL 220652Z 00000KT 10SM CLR 01/M04 A3043 RMK AO2 SLP313 T00111044
KATL 220552Z 00000KT 10SM CLR 02/M04 A3044 RMK AO2 SLP315 T00221044 10067 20017 56009
KATL 220452Z 32003KT 10SM CLR 03/M05 A3045 RMK AO2 SLP318 T00281050 400890011
KATL 220352Z 34005KT 10SM CLR 04/M05 A3045 RMK AO2 SLP319 T00391050
KATL 220252Z 34007KT 10SM CLR 04/M03 A3047 RMK AO2 SLP326 T00441033 51010
KATL 220152Z 33007KT 10SM CLR 05/M03 A3046 RMK AO2 SLP322 T00501028
KATL 220052Z 32008KT 10SM CLR 06/M02 A3045 RMK AO2 SLP319 T00561022
KATL 212352Z 31008KT 10SM CLR 07/M02 A3044 RMK AO2 SLP314 T00671022 10089 20061 53009
KATL 212252Z 30007KT 10SM FEW045 08/M02 A3042 RMK AO2 SLP308 T00831022
KATL 212152Z 36004KT 10SM FEW048 09/M03 A3041 RMK AO2 SLP303 T00891028
KATL 212052Z 35009KT 10SM SCT047 08/M03 A3041 RMK AO2 SLP303 T00831028 56019
KATL 211952Z COR 36007KT 10SM FEW038 BKN044 07/M03 A3042 RMK AO2 SLP308 T00721033
KATL 211852Z 01007KT 340V040 10SM SCT038 BKN046 07/M02 A3044 RMK AO2 SLP315 T00671022
KATL 211752Z 02006KT 10SM BKN034 06/M02 A3047 RMK AO2 SLP323 T00611022 10061 20011 50001
KATL 211652Z 02007KT 10SM FEW026 BKN030 06/M02 A3048 RMK AO2 SLP327 T00561022
KATL 211552Z 35005KT 10SM FEW032 SCT042 04/M03 A3047 RMK AO2 SLP326 T00391028
KATL 211452Z 34010KT 10SM FEW034 SCT046 03/M03 A3046 RMK AO2 SLP323 T00281028 53017
KATL 211352Z 34008KT 10SM FEW035 SCT046 01/M03 A3044 RMK AO2 SLP316 T00111028
KATL 211252Z 33010KT 10SM FEW015 BKN035 BKN050 01/M02 A3041 RMK AO2 SLP306 T00111022
KATL 211249Z 34009KT 10SM BKN032 BKN050 01/M02 A3041 RMK AO2
KATL 211152Z 34010KT 10SM BKN029 OVC035 02/M02 A3038 RMK AO2 SLP296 60001 70080 T00171017 10039 20017 53017
KATL 211052Z 34009KT 10SM FEW015 BKN029 OVC045 02/M02 A3036 RMK AO2 SLP289 T00171017
KATL 210952Z 33008KT 10SM SCT012 BKN027 OVC045 02/M01 A3034 RMK AO2 SLP282 T00221011
KATL 210938Z 33011KT 10SM SCT013 BKN027 OVC045 02/M01 A3034 RMK AO2 T00221006
KATL 210852Z 33007KT 10SM SCT009 SCT035 OVC049 02/01 A3033 RMK AO2 SLP278 DZE33 P0001 60001 T00220006 57001
KATL 210845Z 34007KT 10SM SCT009 SCT035 OVC049 02/01 A3033 RMK AO2 DZE33 P0001 T00220006
KATL 210752Z 35011KT 5SM -DZ BR BKN007 BKN012 OVC020 03/01 A3033 RMK AO2 SLP279 P0000 T00280011
KATL 210652Z 33007KT 4SM -DZ BR BKN005 OVC012 03/02 A3033 RMK AO2 SLP278 RAE40DZB40 P0000 T00330017
KATL 210614Z 34007KT 4SM -RA BR BKN005 OVC010 03/02 A3033 RMK AO2 P0000 T00330017
KATL 210552Z 34006KT 8SM -RA FEW005 OVC010 04/02 A3033 RMK AO2 SLP279 PCPN VRY LGT P0000 60000 T00390017 10050 20039 50005
KATL 210452Z 33007KT 6SM -RA BR BKN008 OVC015 04/02 A3034 RMK AO2 RAB50 SLP280 P0000 T00390017 401000039
KATL 210426Z 34008KT 8SM BKN008 OVC015 04/02 A3034 RMK AO2 T00390017
KATL 210352Z 03007KT 7SM FEW007 BKN012 OVC020 04/02 A3033 RMK AO2 RAE14 SLP277 P0000 T00440017
KATL 210252Z 05009KT 2SM -RA SCT006 BKN014 OVC025 04/02 A3032 RMK AO2 SFC VIS 3 RAB27 SLP272 P0000 60000 T00440017 51021
KATL 210228Z 04007KT 4SM -RA SCT009 BKN014 OVC025 04/02 A3031 RMK AO2 RAB27 P0000 T00440017
KATL 210152Z 02011KT 10SM BKN017 OVC023 04/02 A3030 RMK AO2 SLP267 T00440017